Aeroboteco Virtual Airline

Aeroboteco Virtual Airlines! Uma nuvem a frente.



 INFORMAÇÕES METEOROLÓGICAS
METAR FOR LEHC
ADDS - METARS form results

(1022 UTC 16 January 2019)
Data provider http://aviationweather.gov/metar/data/
 
METAR text: LEHC 161000Z 11003KT 070V190 9999 VCFG NSC 05/M01 Q1018
Conditions at: LEHC (HUESCA-PIRINEOS , ES) observed 1000 UTC 16 January 2019
Temperature: 5.0°C (41°F)
Dewpoint: -1.0°C (30°F) [RH = 65%]
Pressure (altimeter): 30.06 inches Hg (1018.0 mb)
Winds: from the ESE (110 degrees) at 3 MPH (3 knots; 1.5 m/s)
Visibility: 6 or more miles (10+ km)
Ceiling: at least 12,000 feet AGL
Clouds: sky clear below 12,000 feet AGL
Weather: VCFG  (fog in vicinity)

METAR text: LEHC 160930Z VRB02KT 9999 VCFG NSC 04/01 Q1018
Conditions at: LEHC (HUESCA-PIRINEOS , ES) observed 0930 UTC 16 January 2019
Temperature: 4.0°C (39°F)
Dewpoint: 1.0°C (34°F) [RH = 81%]
Pressure (altimeter): 30.06 inches Hg (1018.0 mb)
Winds: variable direction winds at 2 MPH (2 knots; 1.0 m/s)
Visibility: 6 or more miles (10+ km)
Ceiling: at least 12,000 feet AGL
Clouds: sky clear below 12,000 feet AGL
Weather: VCFG  (fog in vicinity)

Forecast for: LEHC (HUESCA-PIRINEOS , ES)
Text: TAF LEHC 160800Z 1609/1709 VRB04KT 9999 FEW020 TX12/1614Z TNM01/1707Z
Forecast period: 0900 to 1800 UTC 16 January 2019
Forecast type: FROM: standard forecast or significant change
Winds: variable direction winds at 5 MPH (4 knots; 2.1 m/s)
Visibility: 6 or more miles 10+ km)
Ceiling: at least 12,000 feet AGL
Clouds: few clouds at 2000 feet AGL
Weather: no significant weather forecast for this period
Text: BECMG 1618/1620 3000 BR
Forecast period: 1800 to 2300 UTC 16 January 2019
Forecast type: BECOMING: Conditions expected to become as follows by 2000 UTC 16 January 2019
Winds: variable direction winds at 5 MPH (4 knots; 2.1 m/s)
Visibility: 1.86 miles (2.99 km)
Ceiling: at least 12,000 feet AGL
Clouds: few clouds at 2000 feet AGL
Weather: BR  (mist)
Text: BECMG 1623/1702 09005KT
Forecast period: 2300 UTC 16 January 2019 to 0900 UTC 17 January 2019
Forecast type: BECOMING: Conditions expected to become as follows by 0200 UTC 17 January 2019
Winds: from the E (90 degrees) at 6 MPH (5 knots; 2.6 m/s)
Visibility: 1.86 miles (2.99 km)
Ceiling: at least 12,000 feet AGL
Clouds: few clouds at 2000 feet AGL
Weather: BR  (mist)
Text: PROB30
Forecast period: 0400 to 0900 UTC 17 January 2019
Forecast type: TEMPORARY: The following changes expected for less than half the time period
Visibility: 0.25 miles (0.40 km)
Ceiling: indefinite ceiling with vertical visibility of 100 feet AGL
Clouds: obscured sky
Weather: FG  (fog)

 MAPA DO AEROPORTO

 INFORMAÇÕES DA PISTA

 FREQUÊNCIAS DO AEROPORTO

 AUXÍLIOS DE NAVEGAÇÃO PRÓXIMOS AO AEROPORTO